Time;durP1;ratioP1;P1;durP2;ratioP2;P2;SDS_P1;SDS_P2;PMS_P1;PMS_P2;Temp;Humidity;BMP_temperature;BMP_pressure;BME280_temperature;BME280_humidity;BME280_pressure;Samples;Min_cycle;Max_cycle;Signal;HPM_P1;HPM_P2
2021/10/14 00:01:25;;;;;;;6.10;2.38;;;;;;;;;;5018733;28;20104;-83
2021/10/14 00:03:52;;;;;;;5.32;2.30;;;;;;;;;;5006304;28;20045;-83
2021/10/14 00:06:20;;;;;;;5.43;2.03;;;;;;;;;;5017479;28;20128;-83
2021/10/14 00:08:47;;;;;;;7.80;2.15;;;;;;;;;;5027738;28;20091;-82
2021/10/14 00:11:14;;;;;;;7.68;2.08;;;;;;;;;;4996049;28;20084;-83
2021/10/14 00:13:41;;;;;;;7.25;2.10;;;;;;;;;;5007843;28;20077;-82
2021/10/14 00:16:09;;;;;;;5.97;1.83;;;;;;;;;;5010614;28;20080;-82
2021/10/14 00:18:37;;;;;;;6.50;2.72;;;;;;;;;;5019502;28;20048;-82
2021/10/14 00:21:04;;;;;;;9.13;2.70;;;;;;;;;;5012881;28;20185;-82
2021/10/14 00:23:32;;;;;;;6.00;2.13;;;;;;;;;;5015528;28;20509;-83
2021/10/14 00:25:59;;;;;;;12.88;2.80;;;;;;;;;;5014925;28;20084;-83
2021/10/14 00:28:26;;;;;;;6.07;2.67;;;;;;;;;;5009636;28;20054;-82
2021/10/14 00:30:53;;;;;;;10.25;2.70;;;;;;;;;;5026018;28;20107;-81
2021/10/14 00:33:24;;;;;;;7.40;3.05;;;;;;;;;;5020723;28;20449;-83
2021/10/14 00:35:51;;;;;;;8.77;3.03;;;;;;;;;;5027447;28;20438;-84
2021/10/14 00:38:18;;;;;;;10.25;3.00;;;;;;;;;;5021694;28;20128;-84
2021/10/14 00:40:46;;;;;;;8.32;3.63;;;;;;;;;;5025709;28;20041;-84
2021/10/14 00:43:13;;;;;;;10.68;4.18;;;;;;;;;;5035673;28;20045;-83
2021/10/14 00:45:41;;;;;;;12.00;4.55;;;;;;;;;;5029522;28;20144;-83
2021/10/14 00:48:08;;;;;;;9.15;3.80;;;;;;;;;;5039817;28;20575;-83
2021/10/14 00:50:36;;;;;;;11.10;3.80;;;;;;;;;;5026531;28;20084;-84
2021/10/14 00:53:05;;;;;;;8.50;3.72;;;;;;;;;;5015139;28;20053;-83
2021/10/14 00:55:33;;;;;;;10.85;4.07;;;;;;;;;;5025068;28;20144;-83
2021/10/14 00:58:01;;;;;;;10.02;3.88;;;;;;;;;;5013184;28;20551;-84
2021/10/14 01:00:28;;;;;;;8.50;4.00;;;;;;;;;;5014855;28;20140;-83
2021/10/14 01:02:55;;;;;;;13.27;4.15;;;;;;;;;;5033326;28;20053;-83
2021/10/14 01:05:26;;;;;;;8.00;3.85;;;;;;;;;;5035186;28;20625;-83
2021/10/14 01:07:53;;;;;;;9.05;3.88;;;;;;;;;;5015146;28;20049;-83
2021/10/14 01:13:50;;;;;;;5.43;2.97;;;;;;;;;;5036336;28;20087;-82
2021/10/14 01:16:17;;;;;;;7.50;3.10;;;;;;;;;;5014018;28;20125;-82
2021/10/14 01:18:44;;;;;;;6.45;2.90;;;;;;;;;;5033488;28;20371;-83
2021/10/14 01:21:12;;;;;;;15.23;5.03;;;;;;;;;;5014418;28;20103;-83
2021/10/14 01:23:40;;;;;;;5.93;3.03;;;;;;;;;;5024500;28;20750;-82
2021/10/14 01:26:07;;;;;;;5.47;3.03;;;;;;;;;;5012188;28;20127;-82
2021/10/14 01:28:34;;;;;;;6.47;3.00;;;;;;;;;;5010154;28;20053;-82
2021/10/14 01:31:02;;;;;;;8.65;2.70;;;;;;;;;;5013003;28;20446;-81
2021/10/14 01:33:30;;;;;;;7.50;2.90;;;;;;;;;;5012766;28;20064;-81
2021/10/14 01:35:58;;;;;;;5.50;3.13;;;;;;;;;;5004072;28;20069;-82
2021/10/14 01:38:25;;;;;;;6.53;3.42;;;;;;;;;;5010904;28;20100;-82
2021/10/14 01:40:53;;;;;;;9.82;3.33;;;;;;;;;;5008449;28;20454;-82
2021/10/14 01:43:20;;;;;;;8.35;3.30;;;;;;;;;;4998089;28;20041;-82
2021/10/14 01:45:48;;;;;;;6.78;3.80;;;;;;;;;;5008350;28;20072;-82
2021/10/14 01:48:15;;;;;;;9.73;4.05;;;;;;;;;;5019765;28;20576;-82
2021/10/14 01:50:43;;;;;;;10.02;4.13;;;;;;;;;;5029434;28;20502;-82
2021/10/14 01:53:10;;;;;;;7.75;3.95;;;;;;;;;;5012416;28;20140;-82
2021/10/14 01:55:38;;;;;;;9.10;4.45;;;;;;;;;;5012720;28;20641;-82
2021/10/14 01:58:05;;;;;;;7.75;4.70;;;;;;;;;;5029140;28;20109;-82
2021/10/14 02:00:32;;;;;;;12.10;4.47;;;;;;;;;;4997325;28;20133;-81
2021/10/14 02:02:59;;;;;;;13.82;5.60;;;;;;;;;;5000880;28;20052;-82
2021/10/14 02:05:29;;;;;;;11.38;4.60;;;;;;;;;;5039440;28;20045;-82
2021/10/14 02:07:56;;;;;;;9.05;5.00;;;;;;;;;;5013627;28;20077;-82
2021/10/14 02:10:23;;;;;;;12.80;5.75;;;;;;;;;;5013164;28;20073;-82
2021/10/14 02:12:51;;;;;;;9.05;4.97;;;;;;;;;;5018651;28;20046;-82
2021/10/14 02:15:18;;;;;;;10.23;5.20;;;;;;;;;;5011263;28;20145;-82
2021/10/14 02:17:46;;;;;;;17.33;5.90;;;;;;;;;;5032124;28;20084;-82
2021/10/14 02:20:13;;;;;;;10.95;6.15;;;;;;;;;;5017319;28;20053;-83
2021/10/14 02:22:40;;;;;;;12.05;6.15;;;;;;;;;;5014077;28;20080;-82
2021/10/14 02:25:08;;;;;;;17.92;6.88;;;;;;;;;;5014484;28;20139;-82
2021/10/14 02:27:35;;;;;;;13.40;6.18;;;;;;;;;;5011358;28;20049;-82
2021/10/14 02:30:04;;;;;;;12.80;6.10;;;;;;;;;;5031242;28;20084;-82
2021/10/14 02:32:31;;;;;;;20.48;7.03;;;;;;;;;;5013535;28;20080;-83
2021/10/14 02:34:58;;;;;;;13.23;6.40;;;;;;;;;;5030062;28;20140;-82
2021/10/14 02:37:27;;;;;;;18.48;7.20;;;;;;;;;;5010618;28;20744;-83
2021/10/14 02:39:55;;;;;;;16.65;7.60;;;;;;;;;;5025360;28;20114;-82
2021/10/14 02:42:22;;;;;;;19.38;7.72;;;;;;;;;;5025946;28;20049;-82
2021/10/14 02:44:49;;;;;;;18.42;7.90;;;;;;;;;;5000516;28;20128;-82
2021/10/14 02:47:16;;;;;;;20.65;8.05;;;;;;;;;;5013452;28;20156;-82
2021/10/14 02:49:44;;;;;;;21.13;7.72;;;;;;;;;;5020909;28;20089;-82
2021/10/14 02:52:11;;;;;;;21.17;7.13;;;;;;;;;;5030658;28;20080;-82
2021/10/14 02:54:38;;;;;;;15.80;7.13;;;;;;;;;;5003322;28;20041;-82
2021/10/14 03:00:24;;;;;;;22.42;8.52;;;;;;;;;;4964124;28;20700;-82
2021/10/14 03:02:51;;;;;;;24.30;8.73;;;;;;;;;;4971647;28;20135;-82
2021/10/14 03:05:18;;;;;;;20.02;7.90;;;;;;;;;;4969969;28;20795;-83
2021/10/14 03:07:45;;;;;;;23.65;8.75;;;;;;;;;;4970088;28;20774;-83
2021/10/14 03:10:13;;;;;;;23.15;9.05;;;;;;;;;;4966102;28;20133;-84
2021/10/14 03:12:40;;;;;;;25.85;9.13;;;;;;;;;;4971051;28;20096;-83
2021/10/14 03:15:07;;;;;;;23.25;8.35;;;;;;;;;;4970795;28;20053;-83
2021/10/14 03:17:34;;;;;;;21.70;8.93;;;;;;;;;;4969654;28;20537;-83
2021/10/14 03:20:01;;;;;;;24.98;9.30;;;;;;;;;;4983173;28;20043;-84
2021/10/14 03:22:29;;;;;;;24.15;9.23;;;;;;;;;;4975772;28;20078;-84
2021/10/14 03:25:08;;;;;;;37.38;12.52;;;;;;;;;;4970666;28;20138;-84
2021/10/14 03:27:35;;;;;;;25.85;9.15;;;;;;;;;;4971419;28;20055;-83
2021/10/14 03:30:03;;;;;;;28.73;10.45;;;;;;;;;;4969443;28;20078;-84
2021/10/14 03:32:30;;;;;;;34.95;12.90;;;;;;;;;;4969434;28;20141;-84
2021/10/14 03:34:57;;;;;;;28.85;12.05;;;;;;;;;;4985642;28;20047;-84
2021/10/14 03:37:26;;;;;;;30.90;9.98;;;;;;;;;;4970738;28;20050;-83
2021/10/14 03:39:53;;;;;;;28.55;10.70;;;;;;;;;;4966488;28;20047;-84
2021/10/14 03:42:21;;;;;;;35.08;12.23;;;;;;;;;;4968007;28;20531;-87
2021/10/14 03:44:48;;;;;;;34.30;11.20;;;;;;;;;;4969427;28;20542;-83
2021/10/14 03:47:15;;;;;;;32.65;11.70;;;;;;;;;;4971137;28;20065;-84
2021/10/14 03:49:42;;;;;;;42.28;12.75;;;;;;;;;;4961868;28;20701;-84
2021/10/14 03:52:11;;;;;;;42.58;11.52;;;;;;;;;;4970998;28;20081;-84
2021/10/14 03:54:38;;;;;;;39.08;12.25;;;;;;;;;;4955147;28;20129;-84
2021/10/14 03:57:05;;;;;;;40.20;12.65;;;;;;;;;;4985830;28;20488;-83
2021/10/14 03:59:33;;;;;;;39.03;12.63;;;;;;;;;;4997486;28;20136;-84
2021/10/14 04:02:00;;;;;;;35.00;13.43;;;;;;;;;;4988499;28;20096;-84
2021/10/14 04:04:27;;;;;;;36.80;12.65;;;;;;;;;;4989799;28;20680;-83
2021/10/14 04:06:54;;;;;;;40.20;13.20;;;;;;;;;;4983140;28;20141;-84
2021/10/14 04:09:28;;;;;;;35.75;13.13;;;;;;;;;;4989462;28;20141;-84
2021/10/14 04:11:56;;;;;;;39.55;13.20;;;;;;;;;;4998023;28;20704;-84
2021/10/14 04:14:23;;;;;;;42.55;14.05;;;;;;;;;;4990056;28;20514;-84
2021/10/14 04:16:50;;;;;;;38.85;13.48;;;;;;;;;;4989361;28;20046;-84
2021/10/14 04:19:17;;;;;;;39.15;14.32;;;;;;;;;;4984769;28;20473;-84
2021/10/14 04:21:45;;;;;;;43.50;13.70;;;;;;;;;;4985523;28;20424;-84
2021/10/14 04:24:12;;;;;;;44.97;13.23;;;;;;;;;;4979545;28;20057;-84
2021/10/14 04:26:39;;;;;;;42.63;14.18;;;;;;;;;;4972791;28;20527;-84
2021/10/14 04:29:07;;;;;;;46.90;14.23;;;;;;;;;;4983432;28;20054;-84
2021/10/14 04:31:34;;;;;;;48.45;14.10;;;;;;;;;;4993697;28;20137;-84
2021/10/14 04:34:03;;;;;;;47.67;14.18;;;;;;;;;;4995484;28;20051;-84
2021/10/14 04:36:30;;;;;;;47.28;14.05;;;;;;;;;;4983076;28;20160;-84
2021/10/14 04:38:57;;;;;;;51.83;15.38;;;;;;;;;;4978336;28;20492;-85
2021/10/14 04:41:24;;;;;;;44.95;14.57;;;;;;;;;;5001907;28;20145;-85
2021/10/14 04:43:51;;;;;;;43.10;14.35;;;;;;;;;;4985945;28;20452;-84
2021/10/14 04:46:20;;;;;;;48.72;13.88;;;;;;;;;;4983728;28;20141;-83
2021/10/14 04:48:47;;;;;;;47.40;15.35;;;;;;;;;;4974198;28;20070;-84
2021/10/14 04:51:15;;;;;;;47.85;15.20;;;;;;;;;;4986620;28;20100;-86
2021/10/14 04:53:42;;;;;;;68.35;16.98;;;;;;;;;;4982813;28;20078;-86
2021/10/14 04:56:09;;;;;;;52.22;15.88;;;;;;;;;;4985322;28;20141;-85
2021/10/14 04:58:37;;;;;;;43.38;15.43;;;;;;;;;;4989463;28;20133;-84
2021/10/14 05:01:04;;;;;;;60.42;17.00;;;;;;;;;;4998239;28;20050;-90
2021/10/14 05:03:31;;;;;;;47.42;14.07;;;;;;;;;;4994880;28;20532;-83
2021/10/14 05:05:58;;;;;;;52.72;15.23;;;;;;;;;;5017423;28;20136;-86
2021/10/14 05:08:25;;;;;;;47.53;14.18;;;;;;;;;;4992975;28;20057;-85
2021/10/14 05:10:53;;;;;;;44.88;13.98;;;;;;;;;;4992631;28;20078;-84
2021/10/14 05:13:21;;;;;;;54.50;15.85;;;;;;;;;;5007162;28;20050;-84
2021/10/14 05:15:49;;;;;;;45.05;14.82;;;;;;;;;;4991444;28;20046;-85
2021/10/14 05:18:16;;;;;;;49.85;15.65;;;;;;;;;;4992740;28;20043;-83
2021/10/14 05:20:43;;;;;;;50.63;14.63;;;;;;;;;;4999908;28;20129;-83
2021/10/14 05:23:10;;;;;;;51.83;16.55;;;;;;;;;;4992119;28;20100;-84
2021/10/14 05:25:38;;;;;;;44.92;14.18;;;;;;;;;;5007848;28;20046;-85
2021/10/14 05:28:05;;;;;;;48.85;15.35;;;;;;;;;;5002443;28;20088;-85
2021/10/14 05:30:32;;;;;;;53.65;14.82;;;;;;;;;;5002878;28;20042;-85
2021/10/14 05:33:02;;;;;;;46.80;15.95;;;;;;;;;;4990521;28;20049;-87
2021/10/14 05:35:34;;;;;;;59.58;17.88;;;;;;;;;;4993719;28;20046;-88
2021/10/14 05:38:04;;;;;;;48.15;16.35;;;;;;;;;;4993675;28;20048;-87
2021/10/14 05:40:31;;;;;;;47.45;15.38;;;;;;;;;;5004568;22;20046;-84
2021/10/14 05:43:06;;;;;;;51.75;15.77;;;;;;;;;;5027886;28;20088;-84
2021/10/14 05:45:33;;;;;;;49.30;16.43;;;;;;;;;;5028329;28;20105;-86
2021/10/14 05:48:00;;;;;;;51.92;15.90;;;;;;;;;;5042374;28;20064;-85
2021/10/14 05:50:28;;;;;;;54.30;17.83;;;;;;;;;;5031248;28;20160;-85
2021/10/14 05:52:55;;;;;;;50.58;16.67;;;;;;;;;;5035089;28;20095;-84
2021/10/14 05:55:22;;;;;;;58.10;16.92;;;;;;;;;;5024044;28;20501;-85
2021/10/14 05:57:50;;;;;;;59.28;16.20;;;;;;;;;;5029224;28;20560;-85
2021/10/14 06:00:17;;;;;;;53.08;15.07;;;;;;;;;;5031713;28;20156;-85
2021/10/14 06:02:46;;;;;;;62.60;17.13;;;;;;;;;;5030758;28;20620;-84
2021/10/14 06:05:14;;;;;;;55.00;15.68;;;;;;;;;;5028624;28;20068;-84
2021/10/14 06:07:41;;;;;;;60.47;17.95;;;;;;;;;;5030993;28;20082;-85
2021/10/14 06:10:08;;;;;;;52.47;16.00;;;;;;;;;;5035151;28;20144;-85
2021/10/14 06:12:37;;;;;;;47.35;16.08;;;;;;;;;;5034349;28;20056;-85
2021/10/14 06:15:05;;;;;;;56.95;17.77;;;;;;;;;;5030184;28;20045;-83
2021/10/14 06:17:32;;;;;;;60.75;16.92;;;;;;;;;;5031778;28;20137;-85
2021/10/14 06:20:01;;;;;;;54.70;16.27;;;;;;;;;;5032024;28;20050;-85
2021/10/14 06:22:31;;;;;;;64.38;17.77;;;;;;;;;;5031115;28;20100;-84
2021/10/14 06:24:58;;;;;;;56.75;19.30;;;;;;;;;;5031097;28;20103;-88
2021/10/14 06:27:25;;;;;;;60.75;22.75;;;;;;;;;;5031389;28;20731;-86
2021/10/14 06:29:54;;;;;;;65.55;19.25;;;;;;;;;;5034402;28;20081;-84
2021/10/14 06:32:22;;;;;;;58.15;19.77;;;;;;;;;;5032765;28;20168;-88
2021/10/14 06:34:49;;;;;;;62.20;20.45;;;;;;;;;;5029143;28;20073;-87
2021/10/14 06:37:19;;;;;;;57.50;19.45;;;;;;;;;;5022343;28;20177;-86
2021/10/14 06:39:46;;;;;;;52.92;19.35;;;;;;;;;;5030657;28;20084;-88
2021/10/14 06:42:14;;;;;;;58.55;19.90;;;;;;;;;;5034740;28;20049;-86
2021/10/14 06:44:41;;;;;;;59.97;21.60;;;;;;;;;;5027698;28;20095;-88
2021/10/14 06:47:13;;;;;;;56.92;20.52;;;;;;;;;;5026833;28;20136;-86
2021/10/14 06:49:48;;;;;;;50.30;18.45;;;;;;;;;;5027341;28;20799;-90
2021/10/14 06:52:16;;;;;;;43.88;14.45;;;;;;;;;;5026999;28;20042;-90
2021/10/14 06:54:44;;;;;;;46.15;15.45;;;;;;;;;;5027953;28;20056;-90
2021/10/14 06:57:23;;;;;;;46.30;13.23;;;;;;;;;;5031348;28;20104;-89
2021/10/14 06:59:53;;;;;;;35.20;12.57;;;;;;;;;;5026196;28;20080;-87
2021/10/14 07:02:20;;;;;;;35.13;11.75;;;;;;;;;;5026255;28;20054;-90
2021/10/14 07:04:48;;;;;;;34.75;11.95;;;;;;;;;;5022711;28;20501;-91
2021/10/14 07:07:17;;;;;;;40.65;12.63;;;;;;;;;;5023664;28;20049;-91
2021/10/14 07:09:44;;;;;;;32.67;10.00;;;;;;;;;;5030206;28;20072;-92
2021/10/14 07:12:11;;;;;;;31.30;9.77;;;;;;;;;;5033309;28;20111;-89
2021/10/14 07:14:39;;;;;;;36.92;11.20;;;;;;;;;;5026802;28;20081;-88
2021/10/14 07:17:06;;;;;;;23.88;9.23;;;;;;;;;;5029047;28;20136;-89
2021/10/14 07:19:35;;;;;;;34.55;10.95;;;;;;;;;;5024911;28;20133;-86
2021/10/14 07:22:04;;;;;;;30.35;9.68;;;;;;;;;;5039329;28;20056;-84
2021/10/14 07:24:33;;;;;;;29.80;10.50;;;;;;;;;;5044401;28;20067;-87
2021/10/14 07:27:10;;;;;;;25.73;9.45;;;;;;;;;;5030540;28;20148;-87
2021/10/14 07:29:37;;;;;;;25.73;9.55;;;;;;;;;;5023487;28;20045;-87
2021/10/14 07:32:10;;;;;;;30.90;8.60;;;;;;;;;;5036170;28;20045;-85
2021/10/14 07:34:38;;;;;;;24.15;9.07;;;;;;;;;;5019666;28;20052;-86
2021/10/14 07:37:18;;;;;;;23.60;8.07;;;;;;;;;;5042540;28;20129;-86
2021/10/14 07:39:46;;;;;;;23.10;8.70;;;;;;;;;;5031319;28;20042;-83
2021/10/14 07:42:16;;;;;;;24.40;7.95;;;;;;;;;;5040487;28;20049;-87
2021/10/14 07:44:43;;;;;;;16.73;8.18;;;;;;;;;;5026254;28;20110;-84
2021/10/14 07:47:11;;;;;;;18.85;7.15;;;;;;;;;;5020730;28;20076;-81
2021/10/14 07:49:38;;;;;;;24.10;7.25;;;;;;;;;;5021399;28;20116;-83
2021/10/14 07:52:05;;;;;;;17.25;6.60;;;;;;;;;;5026878;28;20065;-90
2021/10/14 07:54:33;;;;;;;15.63;6.53;;;;;;;;;;5026647;28;20081;-93
2021/10/14 07:57:01;;;;;;;10.45;4.93;;;;;;;;;;5017077;28;20049;-83
2021/10/14 07:59:31;;;;;;;8.43;3.85;;;;;;;;;;5026252;28;20704;-86
2021/10/14 08:01:58;;;;;;;11.30;4.95;;;;;;;;;;5032007;28;20042;-83
2021/10/14 08:04:26;;;;;;;9.80;3.83;;;;;;;;;;5027961;28;20446;-83
2021/10/14 08:06:53;;;;;;;8.88;3.83;;;;;;;;;;5026391;28;20050;-84
2021/10/14 08:09:20;;;;;;;11.55;4.40;;;;;;;;;;5024706;28;20947;-80
2021/10/14 08:11:47;;;;;;;7.32;3.40;;;;;;;;;;5027061;28;20075;-82
2021/10/14 08:14:15;;;;;;;7.40;3.47;;;;;;;;;;5022023;28;20140;-81
2021/10/14 08:16:44;;;;;;;10.43;3.60;;;;;;;;;;5020829;28;20105;-81
2021/10/14 08:19:11;;;;;;;5.88;3.05;;;;;;;;;;5024586;28;20062;-82
2021/10/14 08:21:40;;;;;;;10.10;2.92;;;;;;;;;;5021793;28;20077;-81
2021/10/14 08:24:08;;;;;;;7.68;3.08;;;;;;;;;;5018514;28;20076;-81
2021/10/14 08:26:35;;;;;;;7.03;2.90;;;;;;;;;;5029722;28;20517;-83
2021/10/14 08:29:02;;;;;;;6.97;2.10;;;;;;;;;;5025928;28;20048;-84
2021/10/14 08:31:31;;;;;;;5.88;2.30;;;;;;;;;;5032505;28;20081;-84
2021/10/14 08:34:02;;;;;;;4.15;1.90;;;;;;;;;;5023082;28;20053;-84
2021/10/14 08:36:32;;;;;;;6.20;2.20;;;;;;;;;;5019440;28;20054;-84
2021/10/14 08:39:01;;;;;;;6.90;2.15;;;;;;;;;;5030882;28;20559;-84
2021/10/14 08:41:28;;;;;;;5.85;2.95;;;;;;;;;;5041842;28;20493;-84
2021/10/14 08:43:57;;;;;;;3.45;1.80;;;;;;;;;;5032673;28;20090;-85
2021/10/14 08:46:25;;;;;;;4.13;1.70;;;;;;;;;;5021002;28;20111;-85
2021/10/14 08:48:52;;;;;;;3.88;1.35;;;;;;;;;;5027832;28;20045;-85
2021/10/14 08:51:19;;;;;;;4.07;1.63;;;;;;;;;;5017851;28;20849;-84
2021/10/14 08:53:47;;;;;;;6.55;2.50;;;;;;;;;;5027785;28;20099;-84
2021/10/14 08:56:14;;;;;;;5.22;1.63;;;;;;;;;;5028356;28;20077;-84
2021/10/14 08:58:42;;;;;;;3.88;1.52;;;;;;;;;;5026910;28;20045;-84
2021/10/14 09:01:11;;;;;;;5.97;1.77;;;;;;;;;;5045815;28;20136;-84
2021/10/14 09:03:52;;;;;;;2.75;1.33;;;;;;;;;;5026624;28;20650;-83
2021/10/14 09:06:20;;;;;;;6.00;1.63;;;;;;;;;;5020443;28;20091;-84
2021/10/14 09:08:51;;;;;;;3.42;1.40;;;;;;;;;;5026809;28;20103;-87
2021/10/14 09:11:25;;;;;;;3.85;1.45;;;;;;;;;;5032830;28;20123;-84
2021/10/14 09:13:54;;;;;;;5.07;1.17;;;;;;;;;;5035071;28;20045;-85
2021/10/14 09:16:33;;;;;;;5.65;1.77;;;;;;;;;;5026969;28;20045;-82
2021/10/14 09:19:14;;;;;;;5.35;1.35;;;;;;;;;;5029915;28;20129;-85
2021/10/14 09:21:46;;;;;;;8.48;1.30;;;;;;;;;;5030704;28;20124;-85
2021/10/14 09:24:46;;;;;;;7.57;1.60;;;;;;;;;;5032224;28;20085;-88
2021/10/14 09:27:16;;;;;;;3.65;1.02;;;;;;;;;;4998995;28;20088;-85
2021/10/14 09:29:49;;;;;;;2.83;0.90;;;;;;;;;;5032700;28;20522;-87
2021/10/14 09:32:22;;;;;;;9.05;1.20;;;;;;;;;;5030684;28;20059;-89
2021/10/14 09:34:50;;;;;;;4.72;1.05;;;;;;;;;;5029220;28;20050;-86
2021/10/14 09:37:17;;;;;;;4.13;1.30;;;;;;;;;;5032338;28;20597;-85
2021/10/14 09:40:14;;;;;;;5.70;1.13;;;;;;;;;;5018483;28;20068;-83
2021/10/14 09:43:03;;;;;;;2.22;1.00;;;;;;;;;;5017104;28;20053;-84
2021/10/14 09:45:34;;;;;;;3.28;0.70;;;;;;;;;;5032188;28;20089;-85
2021/10/14 09:48:07;;;;;;;4.70;1.38;;;;;;;;;;5031075;28;20068;-84
2021/10/14 09:50:45;;;;;;;5.47;2.38;;;;;;;;;;5036217;28;20134;-85
2021/10/14 09:53:14;;;;;;;2.75;1.02;;;;;;;;;;5027036;28;20092;-86
2021/10/14 09:55:42;;;;;;;7.18;1.13;;;;;;;;;;5026409;28;20131;-83
2021/10/14 09:58:10;;;;;;;5.60;0.90;;;;;;;;;;5026897;28;20081;-83
2021/10/14 10:00:38;;;;;;;4.20;0.98;;;;;;;;;;5026924;28;20088;-86
2021/10/14 10:03:06;;;;;;;2.97;1.00;;;;;;;;;;5025277;28;20064;-86
2021/10/14 10:05:35;;;;;;;7.00;1.15;;;;;;;;;;5018432;28;20049;-88
2021/10/14 10:08:08;;;;;;;4.78;1.15;;;;;;;;;;5031014;28;20140;-83
2021/10/14 10:10:36;;;;;;;5.97;1.00;;;;;;;;;;5031377;28;20045;-83
2021/10/14 10:13:05;;;;;;;4.47;1.00;;;;;;;;;;5047155;28;20128;-83
2021/10/14 10:15:46;;;;;;;3.45;1.17;;;;;;;;;;5014667;28;20117;-82
2021/10/14 10:18:29;;;;;;;6.65;1.15;;;;;;;;;;5019400;28;20046;-83
2021/10/14 10:21:00;;;;;;;2.15;0.77;;;;;;;;;;5038881;28;20076;-83
2021/10/14 10:23:42;;;;;;;6.00;1.92;;;;;;;;;;5021415;28;20133;-82
2021/10/14 10:26:28;;;;;;;4.07;1.23;;;;;;;;;;5015423;28;20541;-83
2021/10/14 10:28:56;;;;;;;4.85;0.75;;;;;;;;;;5025760;28;20050;-82
2021/10/14 10:31:23;;;;;;;9.38;0.80;;;;;;;;;;5037982;28;20136;-82
2021/10/14 10:33:58;;;;;;;9.40;1.75;;;;;;;;;;5023301;28;20088;-82
2021/10/14 10:36:58;;;;;;;3.40;1.10;;;;;;;;;;5020770;28;20085;-82
2021/10/14 10:39:41;;;;;;;1.73;1.10;;;;;;;;;;4998429;28;20813;-82
2021/10/14 10:42:14;;;;;;;7.85;1.05;;;;;;;;;;5042168;28;20073;-82
2021/10/14 10:44:45;;;;;;;9.65;2.05;;;;;;;;;;5025986;28;20045;-81
2021/10/14 10:47:31;;;;;;;11.05;2.53;;;;;;;;;;5029720;28;20481;-81
2021/10/14 10:50:00;;;;;;;3.40;1.05;;;;;;;;;;5030965;28;20145;-82
2021/10/14 10:52:31;;;;;;;2.83;1.20;;;;;;;;;;5030374;28;20104;-82
2021/10/14 10:55:02;;;;;;;4.20;1.15;;;;;;;;;;5030206;28;21256;-82
2021/10/14 10:57:47;;;;;;;6.15;1.30;;;;;;;;;;5030934;28;20137;-82
2021/10/14 11:00:16;;;;;;;2.40;1.00;;;;;;;;;;5041001;28;20037;-82
2021/10/14 11:02:44;;;;;;;7.68;1.77;;;;;;;;;;5039508;28;20073;-82
2021/10/14 11:05:12;;;;;;;3.63;1.10;;;;;;;;;;5024225;28;20073;-82
2021/10/14 11:07:40;;;;;;;5.18;1.10;;;;;;;;;;5031639;28;20049;-82
2021/10/14 11:10:07;;;;;;;2.72;1.02;;;;;;;;;;5032232;28;20077;-82
2021/10/14 11:12:34;;;;;;;13.73;1.67;;;;;;;;;;5045352;28;20055;-82
2021/10/14 11:15:19;;;;;;;4.55;1.10;;;;;;;;;;5034835;28;20498;-81
2021/10/14 11:17:59;;;;;;;4.45;1.35;;;;;;;;;;5030978;28;20486;-82
2021/10/14 11:20:26;;;;;;;4.20;0.90;;;;;;;;;;5021713;28;20677;-82
2021/10/14 11:23:00;;;;;;;2.33;1.10;;;;;;;;;;5029879;28;20165;-82
2021/10/14 11:25:28;;;;;;;2.20;0.82;;;;;;;;;;5029641;28;20080;-82
2021/10/14 11:28:02;;;;;;;4.35;1.00;;;;;;;;;;5024662;28;20077;-82
2021/10/14 11:30:38;;;;;;;7.13;1.10;;;;;;;;;;5038112;28;20133;-82
2021/10/14 11:33:36;;;;;;;5.50;1.15;;;;;;;;;;5030619;28;20397;-82
2021/10/14 11:36:05;;;;;;;4.00;1.02;;;;;;;;;;5031260;28;20077;-82
2021/10/14 11:38:34;;;;;;;4.20;0.90;;;;;;;;;;5029823;28;20045;-83
2021/10/14 11:41:02;;;;;;;4.47;1.00;;;;;;;;;;5037106;28;20045;-82
2021/10/14 11:43:30;;;;;;;3.90;0.73;;;;;;;;;;5043733;28;20045;-83
2021/10/14 11:45:58;;;;;;;3.60;0.98;;;;;;;;;;5030271;28;20140;-86
2021/10/14 11:48:31;;;;;;;5.53;1.52;;;;;;;;;;5030091;28;20045;-84
2021/10/14 11:51:11;;;;;;;4.65;0.88;;;;;;;;;;5027483;28;20128;-83
2021/10/14 11:53:41;;;;;;;6.45;1.10;;;;;;;;;;5023705;28;20128;-81
2021/10/14 11:56:10;;;;;;;2.78;0.90;;;;;;;;;;5019212;28;20045;-82
2021/10/14 11:58:37;;;;;;;1.90;0.77;;;;;;;;;;5025754;28;20106;-83
2021/10/14 12:01:12;;;;;;;6.13;1.40;;;;;;;;;;5028721;28;20450;-85
2021/10/14 12:03:41;;;;;;;7.38;1.00;;;;;;;;;;5038514;28;20049;-84
2021/10/14 12:06:09;;;;;;;5.28;1.00;;;;;;;;;;5031352;28;20080;-84
2021/10/14 12:08:36;;;;;;;6.90;1.10;;;;;;;;;;5025690;28;20557;-84
2021/10/14 12:11:15;;;;;;;3.95;0.98;;;;;;;;;;5033973;28;20128;-84
2021/10/14 12:13:42;;;;;;;7.32;2.08;;;;;;;;;;5036214;28;20053;-83
2021/10/14 12:16:13;;;;;;;3.08;1.00;;;;;;;;;;5029333;28;20752;-83
2021/10/14 12:18:44;;;;;;;4.65;0.90;;;;;;;;;;5033155;28;20133;-84
2021/10/14 12:21:31;;;;;;;1.77;0.70;;;;;;;;;;5034742;28;20807;-84
2021/10/14 12:24:31;;;;;;;5.05;1.05;;;;;;;;;;5034825;28;20088;-83
2021/10/14 12:27:07;;;;;;;2.53;0.82;;;;;;;;;;5042209;28;20081;-83
2021/10/14 12:29:35;;;;;;;6.20;0.88;;;;;;;;;;5041005;28;20087;-84
2021/10/14 12:32:18;;;;;;;2.42;0.80;;;;;;;;;;5050772;28;20570;-84
2021/10/14 12:34:48;;;;;;;2.72;0.70;;;;;;;;;;5042646;28;20510;-84
2021/10/14 12:37:16;;;;;;;3.25;1.10;;;;;;;;;;5034850;28;20077;-84
2021/10/14 12:40:08;;;;;;;1.45;0.50;;;;;;;;;;5030933;28;20554;-81
2021/10/14 12:42:53;;;;;;;1.13;0.60;;;;;;;;;;5051135;28;20134;-82
2021/10/14 12:45:29;;;;;;;7.20;1.55;;;;;;;;;;5033711;28;20037;-82
2021/10/14 12:48:09;;;;;;;1.73;0.50;;;;;;;;;;5033206;28;20413;-82
2021/10/14 12:53:40;;;;;;;2.25;0.50;;;;;;;;;;5034533;28;20111;-83
2021/10/14 12:56:08;;;;;;;2.17;1.17;;;;;;;;;;5030822;28;21841;-81
2021/10/14 12:58:35;;;;;;;1.55;0.40;;;;;;;;;;5032717;28;20073;-83
2021/10/14 13:01:10;;;;;;;2.80;0.45;;;;;;;;;;5029213;28;20064;-84
2021/10/14 13:03:38;;;;;;;;;;;;;;;;;;5035606;28;20517;-83
2021/10/14 13:06:05;;;;;;;3.10;0.50;;;;;;;;;;5032396;28;20408;-82
2021/10/14 13:08:37;;;;;;;9.50;0.70;;;;;;;;;;5019652;28;20217;-82
2021/10/14 13:11:05;;;;;;;1.67;0.43;;;;;;;;;;5030535;28;20172;-81
2021/10/14 13:13:39;;;;;;;1.27;0.57;;;;;;;;;;5045118;28;20131;-83
2021/10/14 13:16:07;;;;;;;3.38;0.65;;;;;;;;;;5023526;28;20397;-82
2021/10/14 13:18:41;;;;;;;9.25;1.20;;;;;;;;;;5032763;28;20049;-81
2021/10/14 13:21:10;;;;;;;2.65;0.60;;;;;;;;;;5037367;23;20406;-88
2021/10/14 13:23:47;;;;;;;4.28;0.90;;;;;;;;;;5052415;28;20461;-89
2021/10/14 13:26:15;;;;;;;2.15;0.93;;;;;;;;;;5053096;28;20107;-88
2021/10/14 13:28:42;;;;;;;4.00;1.23;;;;;;;;;;5052504;28;20068;-84
2021/10/14 13:31:10;;;;;;;10.18;2.03;;;;;;;;;;5054085;28;20072;-85
2021/10/14 13:33:42;;;;;;;5.68;1.73;;;;;;;;;;5049828;28;20091;-87
2021/10/14 13:36:13;;;;;;;4.07;1.35;;;;;;;;;;5048700;28;20371;-92
2021/10/14 13:38:44;;;;;;;3.78;1.70;;;;;;;;;;5048855;28;20132;-89
2021/10/14 13:41:17;;;;;;;3.78;2.10;;;;;;;;;;5047166;28;20615;-89
2021/10/14 13:43:50;;;;;;;4.70;1.90;;;;;;;;;;5049946;28;20049;-90
2021/10/14 13:46:23;;;;;;;6.07;2.60;;;;;;;;;;5052817;28;20041;-89
2021/10/14 13:48:54;;;;;;;7.13;3.53;;;;;;;;;;5053215;28;20068;-90
2021/10/14 13:51:21;;;;;;;6.85;2.60;;;;;;;;;;5054575;28;20117;-88
2021/10/14 13:53:49;;;;;;;7.35;2.97;;;;;;;;;;5051722;28;20041;-88
2021/10/14 13:56:21;;;;;;;5.70;3.28;;;;;;;;;;5051274;28;20135;-86
2021/10/14 13:58:48;;;;;;;12.35;3.88;;;;;;;;;;5050508;28;20649;-85
2021/10/14 14:01:18;;;;;;;6.80;3.40;;;;;;;;;;5052716;28;20045;-91
2021/10/14 14:04:01;;;;;;;5.60;3.50;;;;;;;;;;5046531;28;20541;-92
2021/10/14 14:06:32;;;;;;;9.27;3.33;;;;;;;;;;5051844;28;20064;-92
2021/10/14 14:09:01;;;;;;;6.80;3.83;;;;;;;;;;5049248;28;20140;-92
2021/10/14 14:11:29;;;;;;;11.27;3.80;;;;;;;;;;5041944;28;20510;-92
2021/10/14 14:14:11;;;;;;;8.82;4.15;;;;;;;;;;5051711;28;20049;-91
2021/10/14 14:16:38;;;;;;;9.45;3.30;;;;;;;;;;5045552;28;20052;-92
2021/10/14 14:19:06;;;;;;;6.65;3.58;;;;;;;;;;5053935;28;20501;-92
2021/10/14 14:21:34;;;;;;;8.65;3.88;;;;;;;;;;5059494;28;20041;-93
2021/10/14 14:24:01;;;;;;;11.15;3.63;;;;;;;;;;5035193;28;20188;-93
2021/10/14 14:26:29;;;;;;;5.40;3.75;;;;;;;;;;5041384;28;20051;-91
2021/10/14 14:28:58;;;;;;;8.95;3.35;;;;;;;;;;5051953;28;20041;-91
2021/10/14 14:31:28;;;;;;;8.15;3.40;;;;;;;;;;5066744;28;20143;-91
2021/10/14 14:33:56;;;;;;;7.07;3.67;;;;;;;;;;5052741;28;20059;-91
2021/10/14 14:36:25;;;;;;;11.20;4.30;;;;;;;;;;5052765;28;20170;-91
2021/10/14 14:38:54;;;;;;;7.00;3.75;;;;;;;;;;5052582;28;20049;-91
2021/10/14 14:41:22;;;;;;;7.63;3.55;;;;;;;;;;5051706;28;20040;-92
2021/10/14 14:43:49;;;;;;;7.15;4.43;;;;;;;;;;5051669;28;20045;-90
2021/10/14 14:46:21;;;;;;;10.65;4.47;;;;;;;;;;5052464;28;20041;-89
2021/10/14 14:48:49;;;;;;;8.02;4.15;;;;;;;;;;5050669;28;20083;-90
2021/10/14 14:51:18;;;;;;;6.93;3.63;;;;;;;;;;5052291;28;20057;-89
2021/10/14 14:53:45;;;;;;;6.10;3.72;;;;;;;;;;5067016;28;20088;-91
2021/10/14 14:56:18;;;;;;;13.45;5.80;;;;;;;;;;5045989;28;20081;-90
2021/10/14 14:58:54;;;;;;;21.92;10.55;;;;;;;;;;5047370;28;20396;-92